createdAt,value
2019-04-25T00:03:18.830Z,62.1
2019-04-25T00:08:05.774Z,66.1
2019-04-25T00:12:53.819Z,57.5
2019-04-25T00:17:42.295Z,50.3
2019-04-25T00:22:32.639Z,52.7
2019-04-25T00:27:21.625Z,57.1
2019-04-25T00:32:11.711Z,62
2019-04-25T00:37:00.079Z,65
2019-04-25T00:41:01.745Z,68.7
2019-04-25T00:41:17.396Z,69.5
2019-04-25T00:41:34.205Z,70
2019-04-25T00:41:49.908Z,70.2
2019-04-25T00:42:05.485Z,70.2
2019-04-25T00:42:21.028Z,70
2019-04-25T00:42:36.578Z,69.2
2019-04-25T00:42:53.673Z,68.3
2019-04-25T00:43:09.412Z,66.7
2019-04-25T00:43:24.975Z,65.7
2019-04-25T00:44:28.332Z,59.6
2019-04-25T00:49:15.435Z,50.3
2019-04-25T00:54:03.474Z,53
2019-04-25T00:58:52.503Z,57.8
2019-04-25T01:03:39.931Z,62.4
2019-04-25T01:08:26.848Z,66.3
2019-04-25T01:12:27.438Z,67
2019-04-25T01:12:42.990Z,65.3
2019-04-25T01:13:46.171Z,57.4
2019-04-25T01:18:33.723Z,50.2
2019-04-25T01:23:21.160Z,53.7
2019-04-25T01:28:08.408Z,58.4
2019-04-25T01:32:56.672Z,62.8
2019-04-25T01:37:43.860Z,66.8
2019-04-25T01:41:44.612Z,65.9
2019-04-25T01:42:47.968Z,57.8
2019-04-25T01:47:35.130Z,51.3
2019-04-25T01:52:24.295Z,54.5
2019-04-25T01:57:11.471Z,58.9
2019-04-25T02:01:59.455Z,64.1
2019-04-25T02:06:01.460Z,66.2
2019-04-25T02:06:17.080Z,67.6
2019-04-25T02:06:33.477Z,68.5
2019-04-25T02:06:49.133Z,69.4
2019-04-25T02:07:04.699Z,69.6
2019-04-25T02:07:20.546Z,69.8
2019-04-25T02:07:36.136Z,69.2
2019-04-25T02:07:51.703Z,68.7
2019-04-25T02:08:07.687Z,68.3
2019-04-25T02:08:23.957Z,67.7
2019-04-25T02:08:39.882Z,66.3
2019-04-25T02:08:56.192Z,66.3
2019-04-25T02:09:13.531Z,64.7
2019-04-25T02:10:18.065Z,58.8
2019-04-25T02:15:06.252Z,51.3
2019-04-25T02:19:54.573Z,54.9
2019-04-25T02:24:43.732Z,59.7
2019-04-25T02:29:31.233Z,64.3
2019-04-25T02:33:33.829Z,70.1
2019-04-25T02:33:49.723Z,70.2
2019-04-25T02:34:08.408Z,69.2
2019-04-25T02:34:25.094Z,68.8
2019-04-25T02:34:40.770Z,68
2019-04-25T02:35:00.490Z,66.5
2019-04-25T02:36:08.600Z,60
2019-04-25T02:41:00.231Z,52.1
2019-04-25T02:45:50.462Z,55.2
2019-04-25T02:50:37.894Z,60.4
2019-04-25T02:55:31.888Z,65.2
2019-04-25T02:59:37.024Z,65.5
2019-04-25T03:00:52.609Z,60.1
2019-04-25T03:05:47.308Z,52.1
2019-04-25T03:10:35.432Z,55.8
2019-04-25T03:15:24.350Z,59.9
2019-04-25T03:20:14.150Z,65.6
2019-04-25T03:24:16.869Z,71.9
2019-04-25T03:24:34.941Z,71.8
2019-04-25T03:24:50.753Z,71.4
2019-04-25T03:25:09.975Z,70.7
2019-04-25T03:25:27.052Z,68.9
2019-04-25T03:25:43.511Z,68
2019-04-25T03:25:59.261Z,66.9
2019-04-25T03:26:15.272Z,65.7
2019-04-25T03:26:39.777Z,64.2
2019-04-25T03:27:44.071Z,56.2
2019-04-25T03:32:31.055Z,50.7
2019-04-25T03:37:18.763Z,54.9
2019-04-25T03:42:06.280Z,59.3
2019-04-25T03:46:53.551Z,65.7
2019-04-25T03:50:54.172Z,66.6
2019-04-25T03:51:10.030Z,65.6
2019-04-25T03:52:12.344Z,58.4
2019-04-25T03:57:06.666Z,52.5
2019-04-25T04:01:54.683Z,56.2
2019-04-25T04:06:41.510Z,61.6
2019-04-25T04:11:28.269Z,66.4
2019-04-25T04:15:28.920Z,66.9
2019-04-25T04:15:44.464Z,65.6
2019-04-25T04:16:46.668Z,58.2
2019-04-25T04:21:33.484Z,52.2
2019-04-25T04:26:20.228Z,55.4
2019-04-25T04:31:08.348Z,61.3
2019-04-25T04:35:55.472Z,65.2
2019-04-25T04:39:56.204Z,71.8
2019-04-25T04:40:11.904Z,71.6
2019-04-25T04:40:27.504Z,71.4
2019-04-25T04:40:44.148Z,71.6
2019-04-25T04:40:59.872Z,71.4
2019-04-25T04:41:16.418Z,70.9
2019-04-25T04:41:32.052Z,69.8
2019-04-25T04:41:47.618Z,68.4
2019-04-25T04:42:50.210Z,59.2
2019-04-25T04:47:38.080Z,51.8
2019-04-25T04:52:25.775Z,54.9
2019-04-25T04:57:22.760Z,60.6
2019-04-25T05:02:15.813Z,66.7
2019-04-25T05:06:17.358Z,66.8
2019-04-25T05:06:33.817Z,66.1
2019-04-25T05:07:35.689Z,58.5
2019-04-25T05:12:24.043Z,51.9
2019-04-25T05:17:14.962Z,55.3
2019-04-25T05:22:03.685Z,61.1
2019-04-25T05:26:50.773Z,65.6
2019-04-25T05:30:51.530Z,67.5
2019-04-25T05:31:07.088Z,68.5
2019-04-25T05:31:24.007Z,69.1
2019-04-25T05:31:40.970Z,69.4
2019-04-25T05:31:56.833Z,69.1
2019-04-25T05:32:15.426Z,69
2019-04-25T05:32:31.949Z,69
2019-04-25T05:32:47.666Z,69
2019-04-25T05:33:03.992Z,68.7
2019-04-25T05:33:21.546Z,68.1
2019-04-25T05:33:38.747Z,67.1
2019-04-25T05:33:54.653Z,65.9
2019-04-25T05:34:56.451Z,59.8
2019-04-25T05:39:44.130Z,51.3
2019-04-25T05:44:31.950Z,54.6
2019-04-25T05:49:19.276Z,59.2
2019-04-25T05:54:08.159Z,63.4
2019-04-25T05:58:08.766Z,67.6
2019-04-25T05:58:25.741Z,68.2
2019-04-25T05:58:41.745Z,69.2
2019-04-25T05:58:57.570Z,70
2019-04-25T05:59:13.506Z,69.9
2019-04-25T05:59:29.071Z,68.5
2019-04-25T05:59:44.890Z,68.3
2019-04-25T06:00:05.428Z,67.1
2019-04-25T06:00:21.204Z,65.3
2019-04-25T06:01:24.630Z,58.8
2019-04-25T06:06:13.431Z,51.4
2019-04-25T06:11:05.510Z,54.6
2019-04-25T06:15:53.343Z,58.5
2019-04-25T06:20:41.176Z,63.3
2019-04-25T06:25:32.932Z,66.6
2019-04-25T06:29:36.871Z,65.4
2019-04-25T06:29:59.037Z,63.8
2019-04-25T06:31:04.152Z,56
2019-04-25T06:35:56.822Z,50.4
2019-04-25T06:40:45.797Z,53
2019-04-25T06:45:35.081Z,56.7
2019-04-25T06:50:24.527Z,60.2
2019-04-25T06:55:14.134Z,64.2
2019-04-25T07:00:04.475Z,66.4
2019-04-25T07:04:51.615Z,57.8
2019-04-25T07:09:38.871Z,51
2019-04-25T07:14:26.700Z,53.1
2019-04-25T07:19:14.672Z,57.1
2019-04-25T07:24:04.358Z,59.1
2019-04-25T07:28:51.659Z,61.8
2019-04-25T07:33:38.522Z,63.4
2019-04-25T07:38:25.622Z,64.2
2019-04-25T07:43:13.430Z,65
2019-04-25T07:47:15.904Z,67.1
2019-04-25T07:47:34.869Z,68
2019-04-25T07:47:50.920Z,68.1
2019-04-25T07:48:06.604Z,67.1
2019-04-25T07:48:23.183Z,66.5
2019-04-25T07:48:40.292Z,66
2019-04-25T07:49:43.389Z,59.6
2019-04-25T07:54:30.663Z,50.3
2019-04-25T07:59:18.540Z,51.6
2019-04-25T08:04:05.840Z,54.3
2019-04-25T08:08:54.444Z,55.9
2019-04-25T08:13:42.266Z,58.4
2019-04-25T08:18:30.528Z,59.7
2019-04-25T08:23:17.391Z,60.6
2019-04-25T08:28:04.373Z,60.3
2019-04-25T08:32:51.453Z,61.9
2019-04-25T08:37:38.679Z,60.2
2019-04-25T08:42:26.427Z,60.5
2019-04-25T08:47:14.547Z,61
2019-04-25T08:52:01.977Z,59.5
2019-04-25T08:56:49.442Z,59.1
2019-04-25T09:01:44.978Z,59.3
2019-04-25T09:06:33.329Z,59.1
2019-04-25T09:11:24.497Z,58.1
2019-04-25T09:16:13.496Z,57.5
2019-04-25T09:21:03.956Z,57.6
2019-04-25T09:25:51.221Z,55.7
2019-04-25T09:30:38.740Z,54
2019-04-25T09:35:26.961Z,53.2
2019-04-25T09:40:16.235Z,54
2019-04-25T09:45:03.818Z,52.5
2019-04-25T09:49:50.773Z,52.3
2019-04-25T09:54:38.702Z,53.9
2019-04-25T09:59:28.045Z,51.4
2019-04-25T10:04:17.025Z,49
2019-04-25T10:09:04.984Z,50.7
2019-04-25T10:13:53.524Z,48.5
2019-04-25T10:18:41.308Z,46.1
2019-04-25T10:23:29.731Z,45.3
2019-04-25T10:28:17.173Z,46.5
2019-04-25T10:33:04.156Z,46.5
2019-04-25T10:37:53.825Z,45.2
2019-04-25T10:42:46.484Z,44.3
2019-04-25T10:47:35.311Z,45.7
2019-04-25T10:52:25.404Z,42.1
2019-04-25T10:57:17.380Z,42.7
2019-04-25T11:02:04.389Z,41
2019-04-25T11:06:51.718Z,43.7
2019-04-25T11:11:38.748Z,43.5
2019-04-25T11:16:25.784Z,41.8
2019-04-25T11:21:13.795Z,40.2
2019-04-25T11:26:01.596Z,42.7
2019-04-25T11:30:48.576Z,39.2
2019-04-25T11:35:35.612Z,39.4
2019-04-25T11:40:23.438Z,36.6
2019-04-25T11:45:10.566Z,38.7
2019-04-25T11:49:59.992Z,40.9
2019-04-25T11:54:48.159Z,36.6
2019-04-25T11:59:37.439Z,35.6
2019-04-25T12:04:24.646Z,36.4
2019-04-25T12:09:13.749Z,34.8
2019-04-25T12:14:01.620Z,35.2
2019-04-25T12:18:50.236Z,34.6
2019-04-25T12:23:38.049Z,36.1
2019-04-25T12:28:25.326Z,37.5
2019-04-25T12:33:19.206Z,35.2
2019-04-25T12:38:09.040Z,35.4
2019-04-25T12:42:56.545Z,36.6
2019-04-25T12:47:43.456Z,37.6
2019-04-25T12:52:30.266Z,38.6
2019-04-25T12:57:17.454Z,39
2019-04-25T13:02:04.674Z,39.6
2019-04-25T13:06:54.420Z,40.5
2019-04-25T13:11:41.324Z,39.6
2019-04-25T13:16:28.601Z,41.7
2019-04-25T13:21:15.421Z,37.1
2019-04-25T13:26:04.384Z,36.7
2019-04-25T13:31:01.530Z,35.7
2019-04-25T13:35:54.346Z,34.8
2019-04-25T13:40:41.797Z,32.9
2019-04-25T13:45:30.661Z,32.1
2019-04-25T13:50:18.227Z,33.5
2019-04-25T13:55:05.171Z,32.6
2019-04-25T13:59:54.137Z,30.9
2019-04-25T14:04:42.188Z,30.1
2019-04-25T14:09:29.545Z,30.7
2019-04-25T14:14:16.780Z,30.8
2019-04-25T14:19:04.104Z,28.8
2019-04-25T14:23:54.069Z,29.1
2019-04-25T14:28:41.559Z,28.3
2019-04-25T14:33:29.030Z,29.2
2019-04-25T14:38:16.624Z,29.4
2019-04-25T14:43:03.491Z,28.6
2019-04-25T14:47:51.021Z,29
2019-04-25T14:52:38.716Z,29
2019-04-25T14:57:26.156Z,30.3
2019-04-25T15:02:13.295Z,30.7
2019-04-25T15:07:06.703Z,30.6
2019-04-25T15:11:54.545Z,29.6
2019-04-25T15:16:41.450Z,30
2019-04-25T15:21:28.430Z,31.4
2019-04-25T15:26:15.743Z,31.1
2019-04-25T15:31:03.500Z,30.8
2019-04-25T15:35:50.439Z,31.4
2019-04-25T15:40:37.327Z,31.4
2019-04-25T15:45:25.283Z,27.7
2019-04-25T15:50:13.635Z,27.1
2019-04-25T15:55:07.086Z,27.4
2019-04-25T15:59:54.956Z,26.1
2019-04-25T16:04:41.971Z,25.6
2019-04-25T16:09:29.811Z,26
2019-04-25T16:14:17.241Z,24.5
2019-04-25T16:19:04.633Z,25.2
2019-04-25T16:23:52.160Z,26.4
2019-04-25T16:28:39.070Z,24.2
2019-04-25T16:33:26.596Z,25.2
2019-04-25T16:38:13.837Z,24.6
2019-04-25T16:43:06.530Z,27.3
2019-04-25T16:47:55.120Z,25.6
2019-04-25T16:52:43.431Z,27.3
2019-04-25T16:57:31.499Z,26.1
2019-04-25T17:02:32.200Z,26.7
2019-04-25T17:07:20.719Z,29.9
2019-04-25T17:12:11.756Z,30
2019-04-25T17:16:58.977Z,33
2019-04-25T17:21:46.121Z,34.3
2019-04-25T17:26:33.521Z,38.7
2019-04-25T17:31:22.294Z,40.9
2019-04-25T17:36:09.794Z,41.9
2019-04-25T17:40:56.775Z,44.2
2019-04-25T17:45:44.821Z,45.6
2019-04-25T17:50:31.924Z,46.4
2019-04-25T17:55:21.854Z,47.4
2019-04-25T18:00:09.189Z,48.1
2019-04-25T18:04:56.369Z,49.6
2019-04-25T18:09:43.677Z,50.1
2019-04-25T18:14:30.417Z,49.8
2019-04-25T18:19:17.382Z,52.1
2019-04-25T18:24:04.252Z,56.2
2019-04-25T18:28:51.791Z,57
2019-04-25T18:33:39.348Z,57.6
2019-04-25T18:38:26.577Z,59.3
2019-04-25T18:43:14.462Z,58.9
2019-04-25T18:48:02.102Z,58.4
2019-04-25T18:52:50.891Z,59.6
2019-04-25T18:57:40.451Z,60.4
2019-04-25T19:02:28.807Z,61.1
2019-04-25T19:07:22.478Z,62.1
2019-04-25T19:12:09.919Z,63
2019-04-25T19:16:57.320Z,62.8
2019-04-25T19:21:44.206Z,63.8
2019-04-25T19:26:31.313Z,64.3
2019-04-25T19:31:18.855Z,64.5
2019-04-25T19:36:08.301Z,65.2
2019-04-25T19:40:55.614Z,65.4
2019-04-25T19:45:43.170Z,65.9
2019-04-25T19:49:44.994Z,70.7
2019-04-25T19:50:00.560Z,70.7
2019-04-25T19:50:16.103Z,70
2019-04-25T19:50:31.646Z,69.7
2019-04-25T19:50:47.975Z,69.2
2019-04-25T19:51:04.639Z,68.2
2019-04-25T19:51:20.161Z,67.2
2019-04-25T19:51:35.711Z,66
2019-04-25T19:52:38.389Z,56.6
2019-04-25T19:57:26.290Z,49.4
2019-04-25T20:02:13.295Z,51.2
2019-04-25T20:07:06.662Z,53.7
2019-04-25T20:11:53.867Z,57
2019-04-25T20:16:41.131Z,59.6
2019-04-25T20:21:28.125Z,60.3
2019-04-25T20:26:16.519Z,63.6
2019-04-25T20:31:03.491Z,65.3
2019-04-25T20:35:51.919Z,66.9
2019-04-25T20:39:53.787Z,67.5
2019-04-25T20:40:10.018Z,66.3
2019-04-25T20:41:12.422Z,56.1
2019-04-25T20:45:59.999Z,48.9
2019-04-25T20:50:48.340Z,50.9
2019-04-25T20:55:36.511Z,54.7
2019-04-25T21:00:24.532Z,57.6
2019-04-25T21:05:12.091Z,60.1
2019-04-25T21:10:02.847Z,63.2
2019-04-25T21:14:51.046Z,65
2019-04-25T21:19:38.493Z,66.8
2019-04-25T21:23:39.550Z,66.6
2019-04-25T21:23:55.592Z,66.5
2019-04-25T21:24:11.717Z,65.2
2019-04-25T21:25:14.341Z,56.2
2019-04-25T21:30:02.720Z,49.2
2019-04-25T21:34:50.767Z,51.7
2019-04-25T21:39:38.885Z,55.7
2019-04-25T21:44:29.340Z,58.5
2019-04-25T21:49:16.410Z,62.2
2019-04-25T21:54:03.964Z,65
2019-04-25T21:58:53.354Z,67.8
2019-04-25T22:02:56.051Z,67.9
2019-04-25T22:03:12.198Z,66.7
2019-04-25T22:03:28.404Z,66.7
2019-04-25T22:03:44.771Z,65.4
2019-04-25T22:04:47.646Z,56.4
2019-04-25T22:09:34.862Z,49.2
2019-04-25T22:14:22.515Z,52.6
2019-04-25T22:19:09.781Z,56.1
2019-04-25T22:24:06.136Z,59.8
2019-04-25T22:28:57.733Z,63
2019-04-25T22:33:44.911Z,66.7
2019-04-25T22:37:45.827Z,68.1
2019-04-25T22:38:06.760Z,67
2019-04-25T22:39:09.049Z,59.1
2019-04-25T22:43:56.531Z,50.6
2019-04-25T22:48:43.800Z,53.4
2019-04-25T22:53:31.075Z,56.7
2019-04-25T22:58:18.249Z,61.8
2019-04-25T23:03:07.263Z,64.2
2019-04-25T23:07:54.978Z,67.2
2019-04-25T23:11:55.929Z,68.6
2019-04-25T23:12:11.736Z,67.6
2019-04-25T23:12:28.299Z,66.5
2019-04-25T23:12:43.955Z,65.3
2019-04-25T23:13:47.567Z,58.2
2019-04-25T23:18:34.784Z,50.3
2019-04-25T23:23:22.184Z,53
2019-04-25T23:28:10.162Z,56.6
2019-04-25T23:32:57.490Z,60.1
2019-04-25T23:37:44.539Z,64.4
2019-04-25T23:42:32.239Z,68
2019-04-25T23:46:33.231Z,72.8
2019-04-25T23:46:49.019Z,72.8
2019-04-25T23:47:04.620Z,71.6
2019-04-25T23:47:20.437Z,71.4
2019-04-25T23:47:36.385Z,70.5
2019-04-25T23:47:52.503Z,69.3
2019-04-25T23:48:08.337Z,68.2
2019-04-25T23:48:23.878Z,66.6
2019-04-25T23:49:27.513Z,59.2
2019-04-25T23:54:15.153Z,50.3
2019-04-25T23:59:02.337Z,53.2
